Etusivu
METAR-TAF:

METAR-TAF

Lentoasemat :

Benslimane, Marokko

Leveyspiiri: 33-39-20N, Pituuspiiri: 007-13-17W, korkeus merenpinnasta: 191 m

Tämänhetkinen sää

Tämä raportti tehtiin 1 tunti ja 1 minuuttia sitten, kello 05.00 UTC
Tuuli 5 kn pohjoisen/luoteesta
Lämpötila 14°C
Kosteus 100%
Ilmanpaine 1017 hPa

METAR: GMMB 240500Z AUTO 33005KT //// R32/0550VP2000U VV002 14/14 Q1017 NOSIG

Aika: 06:01 (06:01 UTC)


TAF: puuttuu

Säähavainnot ja -ennusteet yli 4000 lentoasemalta (METAR- ja TAF-raportit).

Käytössä olevat sääasemat on merkitty karttaan keltaisilla ja punaisilla pisteillä.

Aseta hiiri pisteen päälle nähdäksesi sääaseman nimen.

Klikkaa sitten nähdäksesi säähavainnot ja -ennusteet.

Kartan vaihtaminen: klikkaa mustalla rastilla varustettuja vihreitä pisteitä, niin voit zoomata sisään; viivalla varustettua vihreää pistettä, niin voit zoomata ulos tai vihreitä nuolia, niin pääset viereisille kartoille.


METAR-TAF: